Dobrynya Nikitich — ERQM — position and weather

sailwx.info

Track history (hours):
 
Tides and Currents Weather Stations Pressure Air Temp Water Temp Dewpoint Dewpoint Depression Visibility Wind Speed Wind Dir Waves Ship Positions

Dobrynya Nikitich

Last reported at 2018-Jul-17 18:32 UTC. Time now 2018-Jul-18 05:08 UTC.
Position N 42°46' E 033°27'.

Length 138 m; draft 2.6 m.

Type: Cargo ship. MMSI: 214181713.

Date/timePositionNaut miles runAvg speedWind from/ knotsBaromVisibWave heightAir tempDewpointWater temp
2018-Jul-17 18:32N 42°46' E 033°27'0 6.5
2018-Jul-17 18:30N 42°46' E 033°27'3 6.4
2018-Jul-17 18:00N 42°43' E 033°26'3 6.4
2018-Jul-17 17:30N 42°40' E 033°24'3 6.2
2018-Jul-17 17:00N 42°37' E 033°23'3 6.5
2018-Jul-17 16:30N 42°33' E 033°22'3 6.5
2018-Jul-17 16:00N 42°30' E 033°21'3 6.5
2018-Jul-17 15:30N 42°27' E 033°19'3 6.2
2018-Jul-17 15:00N 42°24' E 033°19'  
2018-Jul-10 18:06N 45°19' E 036°33'1 8.1
2018-Jul-10 18:00N 45°20' E 036°34'4 8.0
2018-Jul-10 17:30N 45°21' E 036°39'  
Track history (hours):
 
Tides and Currents Weather Stations Pressure Air Temp Water Temp Dewpoint Dewpoint Depression Visibility Wind Speed Wind Dir Waves Ship Positions

Dobrynya Nikitich

Last reported at 2018-Jul-17 18:32 UTC. Time now 2018-Jul-18 05:08 UTC.
Position N 42°46' E 033°27'.

Length 138 m; draft 2.6 m.

Type: Cargo ship. MMSI: 214181713.

Date/timePositionNaut miles runAvg speedWind from/ knotsBaromVisibWave heightAir tempDewpointWater temp
2018-Jul-17 18:32N 42°46' E 033°27'0 6.5
2018-Jul-17 18:30N 42°46' E 033°27'3 6.4
2018-Jul-17 18:00N 42°43' E 033°26'3 6.4
2018-Jul-17 17:30N 42°40' E 033°24'3 6.2
2018-Jul-17 17:00N 42°37' E 033°23'3 6.5
2018-Jul-17 16:30N 42°33' E 033°22'3 6.5
2018-Jul-17 16:00N 42°30' E 033°21'3 6.5
2018-Jul-17 15:30N 42°27' E 033°19'3 6.2
2018-Jul-17 15:00N 42°24' E 033°19'  
2018-Jul-10 18:06N 45°19' E 036°33'1 8.1
2018-Jul-10 18:00N 45°20' E 036°34'4 8.0
2018-Jul-10 17:30N 45°21' E 036°39'  

Dump ship's entire track history